sensor_id;sensor_type;location;lat;lon;timestamp;pressure;altitude;pressure_sealevel;temperature
35582;BMP180;21687;48.900;9.188;2024-02-23T00:00:45;96436.00;;;6.40
35582;BMP180;21687;48.900;9.188;2024-02-23T00:03:11;96458.00;;;6.40
35582;BMP180;21687;48.900;9.188;2024-02-23T00:05:38;96463.00;;;6.40
35582;BMP180;21687;48.900;9.188;2024-02-23T00:08:06;96453.00;;;6.50
35582;BMP180;21687;48.900;9.188;2024-02-23T00:10:33;96452.00;;;6.50
35582;BMP180;21687;48.900;9.188;2024-02-23T00:12:59;96464.00;;;6.40
35582;BMP180;21687;48.900;9.188;2024-02-23T00:15:27;96448.00;;;6.40
35582;BMP180;21687;48.900;9.188;2024-02-23T00:17:53;96438.00;;;6.40
35582;BMP180;21687;48.900;9.188;2024-02-23T00:20:19;96448.00;;;6.40
35582;BMP180;21687;48.900;9.188;2024-02-23T00:22:46;96442.00;;;6.30
35582;BMP180;21687;48.900;9.188;2024-02-23T00:25:12;96464.00;;;6.20
35582;BMP180;21687;48.900;9.188;2024-02-23T00:27:39;96471.00;;;6.30
35582;BMP180;21687;48.900;9.188;2024-02-23T00:30:08;96461.00;;;6.30
35582;BMP180;21687;48.900;9.188;2024-02-23T00:32:34;96465.00;;;6.30
35582;BMP180;21687;48.900;9.188;2024-02-23T00:35:00;96470.00;;;6.30
35582;BMP180;21687;48.900;9.188;2024-02-23T00:37:27;96472.00;;;6.30
35582;BMP180;21687;48.900;9.188;2024-02-23T00:39:53;96505.00;;;6.30
35582;BMP180;21687;48.900;9.188;2024-02-23T00:42:19;96517.00;;;6.40
35582;BMP180;21687;48.900;9.188;2024-02-23T00:44:47;96523.00;;;6.40
35582;BMP180;21687;48.900;9.188;2024-02-23T00:47:13;96512.00;;;6.30
35582;BMP180;21687;48.900;9.188;2024-02-23T00:49:39;96496.00;;;6.30
35582;BMP180;21687;48.900;9.188;2024-02-23T00:52:06;96505.00;;;6.30
35582;BMP180;21687;48.900;9.188;2024-02-23T00:54:32;96496.00;;;6.30
35582;BMP180;21687;48.900;9.188;2024-02-23T00:56:58;96502.00;;;6.30
35582;BMP180;21687;48.900;9.188;2024-02-23T00:59:25;96511.00;;;6.30
35582;BMP180;21687;48.900;9.188;2024-02-23T01:01:51;96516.00;;;6.30
35582;BMP180;21687;48.900;9.188;2024-02-23T01:04:18;96552.00;;;6.30
35582;BMP180;21687;48.900;9.188;2024-02-23T01:06:44;96544.00;;;6.30
35582;BMP180;21687;48.900;9.188;2024-02-23T01:09:10;96540.00;;;6.30
35582;BMP180;21687;48.900;9.188;2024-02-23T01:11:37;96529.00;;;6.20
35582;BMP180;21687;48.900;9.188;2024-02-23T01:14:03;96523.00;;;6.20
35582;BMP180;21687;48.900;9.188;2024-02-23T01:16:29;96537.00;;;6.20
35582;BMP180;21687;48.900;9.188;2024-02-23T01:18:56;96535.00;;;6.20
35582;BMP180;21687;48.900;9.188;2024-02-23T01:21:22;96533.00;;;6.20
35582;BMP180;21687;48.900;9.188;2024-02-23T01:23:49;96518.00;;;6.20
35582;BMP180;21687;48.900;9.188;2024-02-23T01:26:15;96516.00;;;6.20
35582;BMP180;21687;48.900;9.188;2024-02-23T01:28:42;96521.00;;;6.20
35582;BMP180;21687;48.900;9.188;2024-02-23T01:31:11;96540.00;;;6.20
35582;BMP180;21687;48.900;9.188;2024-02-23T01:33:39;96551.00;;;6.30
35582;BMP180;21687;48.900;9.188;2024-02-23T01:36:08;96537.00;;;6.30
35582;BMP180;21687;48.900;9.188;2024-02-23T01:38:34;96553.00;;;6.40
35582;BMP180;21687;48.900;9.188;2024-02-23T01:41:01;96551.00;;;6.30
35582;BMP180;21687;48.900;9.188;2024-02-23T01:43:27;96548.00;;;6.30
35582;BMP180;21687;48.900;9.188;2024-02-23T01:45:54;96542.00;;;6.30
35582;BMP180;21687;48.900;9.188;2024-02-23T01:48:21;96544.00;;;6.20
35582;BMP180;21687;48.900;9.188;2024-02-23T01:50:47;96544.00;;;6.20
35582;BMP180;21687;48.900;9.188;2024-02-23T01:53:14;96548.00;;;6.20
35582;BMP180;21687;48.900;9.188;2024-02-23T01:55:41;96552.00;;;6.30
35582;BMP180;21687;48.900;9.188;2024-02-23T01:58:08;96563.00;;;6.30
35582;BMP180;21687;48.900;9.188;2024-02-23T02:00:35;96551.00;;;6.30
35582;BMP180;21687;48.900;9.188;2024-02-23T02:03:03;96561.00;;;6.30
35582;BMP180;21687;48.900;9.188;2024-02-23T02:05:29;96560.00;;;6.30
35582;BMP180;21687;48.900;9.188;2024-02-23T02:07:56;96568.00;;;6.30
35582;BMP180;21687;48.900;9.188;2024-02-23T02:10:26;96565.00;;;6.30
35582;BMP180;21687;48.900;9.188;2024-02-23T02:12:53;96560.00;;;6.30
35582;BMP180;21687;48.900;9.188;2024-02-23T02:15:19;96565.00;;;6.20
35582;BMP180;21687;48.900;9.188;2024-02-23T02:17:48;96572.00;;;6.20
35582;BMP180;21687;48.900;9.188;2024-02-23T02:20:14;96584.00;;;6.10
35582;BMP180;21687;48.900;9.188;2024-02-23T02:22:43;96590.00;;;6.10
35582;BMP180;21687;48.900;9.188;2024-02-23T02:25:10;96595.00;;;6.00
35582;BMP180;21687;48.900;9.188;2024-02-23T02:27:36;96603.00;;;6.10
35582;BMP180;21687;48.900;9.188;2024-02-23T02:30:03;96602.00;;;6.00
35582;BMP180;21687;48.900;9.188;2024-02-23T02:32:29;96594.00;;;6.00
35582;BMP180;21687;48.900;9.188;2024-02-23T02:34:55;96585.00;;;5.80
35582;BMP180;21687;48.900;9.188;2024-02-23T02:37:21;96578.00;;;5.80
35582;BMP180;21687;48.900;9.188;2024-02-23T02:39:48;96584.00;;;5.70
35582;BMP180;21687;48.900;9.188;2024-02-23T02:42:14;96581.00;;;5.60
35582;BMP180;21687;48.900;9.188;2024-02-23T02:44:41;96574.00;;;5.60
35582;BMP180;21687;48.900;9.188;2024-02-23T02:47:07;96575.00;;;5.50
35582;BMP180;21687;48.900;9.188;2024-02-23T02:49:33;96573.00;;;5.50
35582;BMP180;21687;48.900;9.188;2024-02-23T02:51:59;96571.00;;;5.40
35582;BMP180;21687;48.900;9.188;2024-02-23T02:54:26;96580.00;;;5.40
35582;BMP180;21687;48.900;9.188;2024-02-23T02:56:52;96560.00;;;5.30
35582;BMP180;21687;48.900;9.188;2024-02-23T02:59:20;96573.00;;;5.30
35582;BMP180;21687;48.900;9.188;2024-02-23T03:01:48;96567.00;;;5.30
35582;BMP180;21687;48.900;9.188;2024-02-23T03:04:14;96574.00;;;5.30
35582;BMP180;21687;48.900;9.188;2024-02-23T03:06:40;96578.00;;;5.30
35582;BMP180;21687;48.900;9.188;2024-02-23T03:09:25;96583.00;;;5.30
35582;BMP180;21687;48.900;9.188;2024-02-23T03:11:51;96588.00;;;5.30
35582;BMP180;21687;48.900;9.188;2024-02-23T03:14:17;96576.00;;;5.30
35582;BMP180;21687;48.900;9.188;2024-02-23T03:16:45;96568.00;;;5.30
35582;BMP180;21687;48.900;9.188;2024-02-23T03:19:13;96571.00;;;5.20
35582;BMP180;21687;48.900;9.188;2024-02-23T03:21:39;96578.00;;;5.30
35582;BMP180;21687;48.900;9.188;2024-02-23T03:24:06;96577.00;;;5.30
35582;BMP180;21687;48.900;9.188;2024-02-23T03:26:32;96560.00;;;5.30
35582;BMP180;21687;48.900;9.188;2024-02-23T03:28:59;96557.00;;;5.30
35582;BMP180;21687;48.900;9.188;2024-02-23T03:31:25;96573.00;;;5.30
35582;BMP180;21687;48.900;9.188;2024-02-23T03:33:51;96577.00;;;5.30
35582;BMP180;21687;48.900;9.188;2024-02-23T03:36:18;96576.00;;;5.30
35582;BMP180;21687;48.900;9.188;2024-02-23T03:38:44;96565.00;;;5.30
35582;BMP180;21687;48.900;9.188;2024-02-23T03:41:10;96561.00;;;5.30
35582;BMP180;21687;48.900;9.188;2024-02-23T03:43:37;96559.00;;;5.30
35582;BMP180;21687;48.900;9.188;2024-02-23T03:46:05;96560.00;;;5.30
35582;BMP180;21687;48.900;9.188;2024-02-23T03:48:32;96569.00;;;5.30
35582;BMP180;21687;48.900;9.188;2024-02-23T03:50:58;96578.00;;;5.30
35582;BMP180;21687;48.900;9.188;2024-02-23T03:53:25;96573.00;;;5.40
35582;BMP180;21687;48.900;9.188;2024-02-23T03:55:51;96575.00;;;5.40
35582;BMP180;21687;48.900;9.188;2024-02-23T03:58:18;96593.00;;;5.30
35582;BMP180;21687;48.900;9.188;2024-02-23T04:00:44;96586.00;;;5.40
35582;BMP180;21687;48.900;9.188;2024-02-23T04:03:10;96598.00;;;5.30
35582;BMP180;21687;48.900;9.188;2024-02-23T04:05:37;96615.00;;;5.30
35582;BMP180;21687;48.900;9.188;2024-02-23T04:08:03;96608.00;;;5.30
35582;BMP180;21687;48.900;9.188;2024-02-23T04:10:30;96584.00;;;5.30
35582;BMP180;21687;48.900;9.188;2024-02-23T04:12:58;96587.00;;;5.30
35582;BMP180;21687;48.900;9.188;2024-02-23T04:15:25;96586.00;;;5.30
35582;BMP180;21687;48.900;9.188;2024-02-23T04:17:51;96596.00;;;5.20
35582;BMP180;21687;48.900;9.188;2024-02-23T04:20:18;96592.00;;;5.20
35582;BMP180;21687;48.900;9.188;2024-02-23T04:22:45;96599.00;;;5.20
35582;BMP180;21687;48.900;9.188;2024-02-23T04:25:13;96585.00;;;5.10
35582;BMP180;21687;48.900;9.188;2024-02-23T04:27:39;96596.00;;;5.10
35582;BMP180;21687;48.900;9.188;2024-02-23T04:30:06;96594.00;;;5.10
35582;BMP180;21687;48.900;9.188;2024-02-23T04:32:32;96589.00;;;5.10
35582;BMP180;21687;48.900;9.188;2024-02-23T04:34:58;96591.00;;;5.10
35582;BMP180;21687;48.900;9.188;2024-02-23T04:37:25;96587.00;;;5.10
35582;BMP180;21687;48.900;9.188;2024-02-23T04:39:51;96587.00;;;5.10
35582;BMP180;21687;48.900;9.188;2024-02-23T04:42:18;96579.00;;;5.10
35582;BMP180;21687;48.900;9.188;2024-02-23T04:44:45;96583.00;;;5.00
35582;BMP180;21687;48.900;9.188;2024-02-23T04:47:12;96587.00;;;5.00
35582;BMP180;21687;48.900;9.188;2024-02-23T04:49:38;96592.00;;;5.00
35582;BMP180;21687;48.900;9.188;2024-02-23T04:52:05;96595.00;;;5.00
35582;BMP180;21687;48.900;9.188;2024-02-23T04:54:32;96583.00;;;5.00
35582;BMP180;21687;48.900;9.188;2024-02-23T04:56:58;96598.00;;;5.00
35582;BMP180;21687;48.900;9.188;2024-02-23T04:59:25;96593.00;;;4.90
35582;BMP180;21687;48.900;9.188;2024-02-23T05:01:51;96578.00;;;4.90
35582;BMP180;21687;48.900;9.188;2024-02-23T05:04:18;96575.00;;;4.90
35582;BMP180;21687;48.900;9.188;2024-02-23T05:06:44;96570.00;;;4.90
35582;BMP180;21687;48.900;9.188;2024-02-23T05:09:25;96568.00;;;4.80
35582;BMP180;21687;48.900;9.188;2024-02-23T05:11:51;96574.00;;;4.70
35582;BMP180;21687;48.900;9.188;2024-02-23T05:14:18;96564.00;;;4.70
35582;BMP180;21687;48.900;9.188;2024-02-23T05:16:44;96568.00;;;4.70
35582;BMP180;21687;48.900;9.188;2024-02-23T05:19:10;96563.00;;;4.60
35582;BMP180;21687;48.900;9.188;2024-02-23T05:21:37;96567.00;;;4.50
35582;BMP180;21687;48.900;9.188;2024-02-23T05:24:03;96571.00;;;4.40
35582;BMP180;21687;48.900;9.188;2024-02-23T05:26:31;96572.00;;;4.30
35582;BMP180;21687;48.900;9.188;2024-02-23T05:28:58;96576.00;;;4.30
35582;BMP180;21687;48.900;9.188;2024-02-23T05:31:44;96568.00;;;4.20
35582;BMP180;21687;48.900;9.188;2024-02-23T05:34:12;96574.00;;;4.30
35582;BMP180;21687;48.900;9.188;2024-02-23T05:36:39;96587.00;;;4.30
35582;BMP180;21687;48.900;9.188;2024-02-23T05:39:06;96591.00;;;4.20
35582;BMP180;21687;48.900;9.188;2024-02-23T05:41:33;96593.00;;;4.30
35582;BMP180;21687;48.900;9.188;2024-02-23T05:44:00;96595.00;;;4.20
35582;BMP180;21687;48.900;9.188;2024-02-23T05:46:27;96596.00;;;4.30
35582;BMP180;21687;48.900;9.188;2024-02-23T05:48:53;96601.00;;;4.20
35582;BMP180;21687;48.900;9.188;2024-02-23T05:51:20;96602.00;;;4.30
35582;BMP180;21687;48.900;9.188;2024-02-23T05:53:46;96603.00;;;4.40
35582;BMP180;21687;48.900;9.188;2024-02-23T05:56:12;96615.00;;;4.40
35582;BMP180;21687;48.900;9.188;2024-02-23T05:58:39;96601.00;;;4.40
35582;BMP180;21687;48.900;9.188;2024-02-23T06:01:06;96607.00;;;4.40
35582;BMP180;21687;48.900;9.188;2024-02-23T06:03:33;96615.00;;;4.50
35582;BMP180;21687;48.900;9.188;2024-02-23T06:06:00;96610.00;;;4.50
35582;BMP180;21687;48.900;9.188;2024-02-23T06:08:26;96614.00;;;4.40
35582;BMP180;21687;48.900;9.188;2024-02-23T06:10:52;96617.00;;;4.30
35582;BMP180;21687;48.900;9.188;2024-02-23T06:13:19;96620.00;;;4.20
35582;BMP180;21687;48.900;9.188;2024-02-23T06:15:46;96620.00;;;4.20
35582;BMP180;21687;48.900;9.188;2024-02-23T06:18:13;96630.00;;;4.20
35582;BMP180;21687;48.900;9.188;2024-02-23T06:20:39;96627.00;;;4.20
35582;BMP180;21687;48.900;9.188;2024-02-23T06:23:05;96645.00;;;4.20
35582;BMP180;21687;48.900;9.188;2024-02-23T06:25:31;96633.00;;;4.10
35582;BMP180;21687;48.900;9.188;2024-02-23T06:27:58;96650.00;;;4.20
35582;BMP180;21687;48.900;9.188;2024-02-23T06:30:24;96644.00;;;4.10
35582;BMP180;21687;48.900;9.188;2024-02-23T06:32:51;96642.00;;;4.00
35582;BMP180;21687;48.900;9.188;2024-02-23T06:35:17;96653.00;;;4.00
35582;BMP180;21687;48.900;9.188;2024-02-23T06:37:44;96652.00;;;4.00
35582;BMP180;21687;48.900;9.188;2024-02-23T06:40:11;96648.00;;;4.00
35582;BMP180;21687;48.900;9.188;2024-02-23T06:42:37;96645.00;;;3.90
35582;BMP180;21687;48.900;9.188;2024-02-23T06:45:03;96650.00;;;3.90
35582;BMP180;21687;48.900;9.188;2024-02-23T06:47:30;96643.00;;;3.90
35582;BMP180;21687;48.900;9.188;2024-02-23T06:49:56;96638.00;;;4.00
35582;BMP180;21687;48.900;9.188;2024-02-23T06:52:22;96647.00;;;4.10
35582;BMP180;21687;48.900;9.188;2024-02-23T06:54:49;96639.00;;;4.10
35582;BMP180;21687;48.900;9.188;2024-02-23T06:57:16;96646.00;;;4.20
35582;BMP180;21687;48.900;9.188;2024-02-23T06:59:42;96635.00;;;4.20
35582;BMP180;21687;48.900;9.188;2024-02-23T07:02:09;96650.00;;;4.30
35582;BMP180;21687;48.900;9.188;2024-02-23T07:04:35;96644.00;;;4.30
35582;BMP180;21687;48.900;9.188;2024-02-23T07:07:01;96636.00;;;4.30
35582;BMP180;21687;48.900;9.188;2024-02-23T07:09:36;96653.00;;;4.40
35582;BMP180;21687;48.900;9.188;2024-02-23T07:12:03;96649.00;;;4.40
35582;BMP180;21687;48.900;9.188;2024-02-23T07:14:29;96657.00;;;4.50
35582;BMP180;21687;48.900;9.188;2024-02-23T07:16:56;96655.00;;;4.50
35582;BMP180;21687;48.900;9.188;2024-02-23T07:19:22;96643.00;;;4.50
35582;BMP180;21687;48.900;9.188;2024-02-23T07:21:48;96651.00;;;4.70
35582;BMP180;21687;48.900;9.188;2024-02-23T07:24:15;96662.00;;;4.70
35582;BMP180;21687;48.900;9.188;2024-02-23T07:26:41;96656.00;;;4.70
35582;BMP180;21687;48.900;9.188;2024-02-23T07:29:08;96662.00;;;4.70
35582;BMP180;21687;48.900;9.188;2024-02-23T07:31:35;96658.00;;;4.80
35582;BMP180;21687;48.900;9.188;2024-02-23T07:34:01;96655.00;;;4.80
35582;BMP180;21687;48.900;9.188;2024-02-23T07:36:28;96659.00;;;4.90
35582;BMP180;21687;48.900;9.188;2024-02-23T07:38:54;96660.00;;;4.90
35582;BMP180;21687;48.900;9.188;2024-02-23T07:41:21;96657.00;;;5.00
35582;BMP180;21687;48.900;9.188;2024-02-23T07:43:47;96659.00;;;5.00
35582;BMP180;21687;48.900;9.188;2024-02-23T07:46:15;96650.00;;;5.10
35582;BMP180;21687;48.900;9.188;2024-02-23T07:48:42;96645.00;;;5.10
35582;BMP180;21687;48.900;9.188;2024-02-23T07:51:09;96654.00;;;5.20
35582;BMP180;21687;48.900;9.188;2024-02-23T07:53:35;96664.00;;;5.20
35582;BMP180;21687;48.900;9.188;2024-02-23T07:56:02;96654.00;;;5.20
35582;BMP180;21687;48.900;9.188;2024-02-23T07:58:28;96654.00;;;5.30
35582;BMP180;21687;48.900;9.188;2024-02-23T08:00:55;96650.00;;;5.30
35582;BMP180;21687;48.900;9.188;2024-02-23T08:03:21;96654.00;;;5.30
35582;BMP180;21687;48.900;9.188;2024-02-23T08:05:47;96665.00;;;5.30
35582;BMP180;21687;48.900;9.188;2024-02-23T08:08:14;96673.00;;;5.30
35582;BMP180;21687;48.900;9.188;2024-02-23T08:10:40;96673.00;;;5.20
35582;BMP180;21687;48.900;9.188;2024-02-23T08:13:06;96674.00;;;5.30
35582;BMP180;21687;48.900;9.188;2024-02-23T08:15:33;96671.00;;;5.30
35582;BMP180;21687;48.900;9.188;2024-02-23T08:18:01;96674.00;;;5.30
35582;BMP180;21687;48.900;9.188;2024-02-23T08:20:28;96663.00;;;5.30
35582;BMP180;21687;48.900;9.188;2024-02-23T08:22:54;96660.00;;;5.30
35582;BMP180;21687;48.900;9.188;2024-02-23T08:25:20;96643.00;;;5.20
35582;BMP180;21687;48.900;9.188;2024-02-23T08:27:46;96656.00;;;5.30
35582;BMP180;21687;48.900;9.188;2024-02-23T08:30:14;96653.00;;;5.30
35582;BMP180;21687;48.900;9.188;2024-02-23T08:32:41;96645.00;;;5.20
35582;BMP180;21687;48.900;9.188;2024-02-23T08:35:08;96642.00;;;5.30
35582;BMP180;21687;48.900;9.188;2024-02-23T08:37:34;96651.00;;;5.40
35582;BMP180;21687;48.900;9.188;2024-02-23T08:40:00;96638.00;;;5.30
35582;BMP180;21687;48.900;9.188;2024-02-23T08:42:27;96644.00;;;5.30
35582;BMP180;21687;48.900;9.188;2024-02-23T08:44:53;96632.00;;;5.30
35582;BMP180;21687;48.900;9.188;2024-02-23T08:47:20;96662.00;;;5.30
35582;BMP180;21687;48.900;9.188;2024-02-23T08:49:46;96654.00;;;5.30
35582;BMP180;21687;48.900;9.188;2024-02-23T08:52:13;96651.00;;;5.30
35582;BMP180;21687;48.900;9.188;2024-02-23T08:54:39;96659.00;;;5.40
35582;BMP180;21687;48.900;9.188;2024-02-23T08:57:06;96666.00;;;5.40
35582;BMP180;21687;48.900;9.188;2024-02-23T08:59:32;96661.00;;;5.50
35582;BMP180;21687;48.900;9.188;2024-02-23T09:01:58;96663.00;;;5.50
35582;BMP180;21687;48.900;9.188;2024-02-23T09:04:24;96660.00;;;5.70
35582;BMP180;21687;48.900;9.188;2024-02-23T09:06:50;96667.00;;;5.80
35582;BMP180;21687;48.900;9.188;2024-02-23T09:09:19;96662.00;;;5.90
35582;BMP180;21687;48.900;9.188;2024-02-23T09:11:45;96666.00;;;5.90
35582;BMP180;21687;48.900;9.188;2024-02-23T09:14:12;96668.00;;;6.00
35582;BMP180;21687;48.900;9.188;2024-02-23T09:16:38;96673.00;;;6.00
35582;BMP180;21687;48.900;9.188;2024-02-23T09:19:04;96668.00;;;5.90
35582;BMP180;21687;48.900;9.188;2024-02-23T09:21:31;96672.00;;;6.00
35582;BMP180;21687;48.900;9.188;2024-02-23T09:23:57;96671.00;;;5.90
35582;BMP180;21687;48.900;9.188;2024-02-23T09:26:23;96672.00;;;6.00
35582;BMP180;21687;48.900;9.188;2024-02-23T09:29:09;96677.00;;;6.00
35582;BMP180;21687;48.900;9.188;2024-02-23T09:31:55;96668.00;;;6.00
35582;BMP180;21687;48.900;9.188;2024-02-23T09:34:41;96668.00;;;5.90
35582;BMP180;21687;48.900;9.188;2024-02-23T09:37:28;96665.00;;;6.10
35582;BMP180;21687;48.900;9.188;2024-02-23T09:40:15;96668.00;;;6.20
35582;BMP180;21687;48.900;9.188;2024-02-23T09:43:02;96668.00;;;6.30
35582;BMP180;21687;48.900;9.188;2024-02-23T09:45:51;96670.00;;;6.20
35582;BMP180;21687;48.900;9.188;2024-02-23T09:48:39;96669.00;;;6.20
35582;BMP180;21687;48.900;9.188;2024-02-23T09:51:26;96667.00;;;6.10
35582;BMP180;21687;48.900;9.188;2024-02-23T09:54:12;96677.00;;;6.20
35582;BMP180;21687;48.900;9.188;2024-02-23T09:56:59;96674.00;;;6.30
35582;BMP180;21687;48.900;9.188;2024-02-23T09:59:46;96678.00;;;6.50
35582;BMP180;21687;48.900;9.188;2024-02-23T10:02:35;96681.00;;;6.70
35582;BMP180;21687;48.900;9.188;2024-02-23T10:05:26;96676.00;;;6.80
35582;BMP180;21687;48.900;9.188;2024-02-23T10:08:15;96688.00;;;7.00
35582;BMP180;21687;48.900;9.188;2024-02-23T10:11:02;96678.00;;;7.30
35582;BMP180;21687;48.900;9.188;2024-02-23T10:13:49;96683.00;;;7.50
35582;BMP180;21687;48.900;9.188;2024-02-23T10:16:36;96679.00;;;7.70
35582;BMP180;21687;48.900;9.188;2024-02-23T10:19:22;96687.00;;;7.60
35582;BMP180;21687;48.900;9.188;2024-02-23T10:22:15;96683.00;;;7.80
35582;BMP180;21687;48.900;9.188;2024-02-23T10:25:01;96687.00;;;7.80
35582;BMP180;21687;48.900;9.188;2024-02-23T10:27:48;96693.00;;;7.80
35582;BMP180;21687;48.900;9.188;2024-02-23T10:30:34;96691.00;;;7.80
35582;BMP180;21687;48.900;9.188;2024-02-23T10:33:23;96701.00;;;8.10
35582;BMP180;21687;48.900;9.188;2024-02-23T10:36:11;96699.00;;;8.00
35582;BMP180;21687;48.900;9.188;2024-02-23T10:39:00;96695.00;;;8.30
35582;BMP180;21687;48.900;9.188;2024-02-23T10:41:57;96697.00;;;8.50
35582;BMP180;21687;48.900;9.188;2024-02-23T10:44:47;96697.00;;;8.50
35582;BMP180;21687;48.900;9.188;2024-02-23T10:47:35;96686.00;;;8.40
35582;BMP180;21687;48.900;9.188;2024-02-23T10:50:22;96685.00;;;8.30
35582;BMP180;21687;48.900;9.188;2024-02-23T10:53:11;96698.00;;;8.40
35582;BMP180;21687;48.900;9.188;2024-02-23T10:55:58;96689.00;;;8.20
35582;BMP180;21687;48.900;9.188;2024-02-23T10:58:45;96690.00;;;8.50
35582;BMP180;21687;48.900;9.188;2024-02-23T11:01:33;96676.00;;;8.60
35582;BMP180;21687;48.900;9.188;2024-02-23T11:04:21;96675.00;;;8.60
35582;BMP180;21687;48.900;9.188;2024-02-23T11:07:13;96678.00;;;8.70
35582;BMP180;21687;48.900;9.188;2024-02-23T11:10:00;96681.00;;;8.60
35582;BMP180;21687;48.900;9.188;2024-02-23T11:12:58;96676.00;;;8.70
35582;BMP180;21687;48.900;9.188;2024-02-23T11:15:46;96666.00;;;8.90
35582;BMP180;21687;48.900;9.188;2024-02-23T11:18:38;96664.00;;;9.10
35582;BMP180;21687;48.900;9.188;2024-02-23T11:21:34;96655.00;;;9.30
35582;BMP180;21687;48.900;9.188;2024-02-23T11:24:28;96656.00;;;8.90
35582;BMP180;21687;48.900;9.188;2024-02-23T11:27:15;96660.00;;;8.90
35582;BMP180;21687;48.900;9.188;2024-02-23T11:30:06;96663.00;;;9.00
35582;BMP180;21687;48.900;9.188;2024-02-23T11:32:59;96664.00;;;9.00
35582;BMP180;21687;48.900;9.188;2024-02-23T11:35:49;96658.00;;;9.10
35582;BMP180;21687;48.900;9.188;2024-02-23T11:38:36;96662.00;;;8.90
35582;BMP180;21687;48.900;9.188;2024-02-23T11:41:23;96659.00;;;9.20
35582;BMP180;21687;48.900;9.188;2024-02-23T11:44:10;96660.00;;;9.10
35582;BMP180;21687;48.900;9.188;2024-02-23T11:46:58;96650.00;;;9.20
35582;BMP180;21687;48.900;9.188;2024-02-23T11:49:46;96654.00;;;9.00
35582;BMP180;21687;48.900;9.188;2024-02-23T11:52:33;96652.00;;;9.20
35582;BMP180;21687;48.900;9.188;2024-02-23T11:55:20;96644.00;;;9.40
35582;BMP180;21687;48.900;9.188;2024-02-23T11:58:08;96647.00;;;9.40
35582;BMP180;21687;48.900;9.188;2024-02-23T12:00:55;96651.00;;;9.60
35582;BMP180;21687;48.900;9.188;2024-02-23T12:03:42;96642.00;;;9.70
35582;BMP180;21687;48.900;9.188;2024-02-23T12:06:30;96641.00;;;9.60
35582;BMP180;21687;48.900;9.188;2024-02-23T12:09:18;96635.00;;;9.30
35582;BMP180;21687;48.900;9.188;2024-02-23T12:12:05;96640.00;;;9.30
35582;BMP180;21687;48.900;9.188;2024-02-23T12:14:52;96627.00;;;9.20
35582;BMP180;21687;48.900;9.188;2024-02-23T12:17:50;96631.00;;;9.10
35582;BMP180;21687;48.900;9.188;2024-02-23T12:20:36;96633.00;;;9.20
35582;BMP180;21687;48.900;9.188;2024-02-23T12:23:23;96636.00;;;9.20
35582;BMP180;21687;48.900;9.188;2024-02-23T12:26:10;96633.00;;;9.10
35582;BMP180;21687;48.900;9.188;2024-02-23T12:29:03;96635.00;;;9.20
35582;BMP180;21687;48.900;9.188;2024-02-23T12:31:49;96627.00;;;9.10
35582;BMP180;21687;48.900;9.188;2024-02-23T12:34:36;96629.00;;;9.10
35582;BMP180;21687;48.900;9.188;2024-02-23T12:37:23;96628.00;;;8.80
35582;BMP180;21687;48.900;9.188;2024-02-23T12:40:10;96628.00;;;8.70
35582;BMP180;21687;48.900;9.188;2024-02-23T12:42:56;96634.00;;;8.70
35582;BMP180;21687;48.900;9.188;2024-02-23T12:45:43;96631.00;;;9.00
35582;BMP180;21687;48.900;9.188;2024-02-23T12:48:35;96633.00;;;9.10
35582;BMP180;21687;48.900;9.188;2024-02-23T12:51:25;96634.00;;;9.20
35582;BMP180;21687;48.900;9.188;2024-02-23T12:54:12;96623.00;;;9.20
35582;BMP180;21687;48.900;9.188;2024-02-23T12:56:59;96629.00;;;9.10
35582;BMP180;21687;48.900;9.188;2024-02-23T12:59:45;96633.00;;;9.10
35582;BMP180;21687;48.900;9.188;2024-02-23T13:02:32;96635.00;;;9.10
35582;BMP180;21687;48.900;9.188;2024-02-23T13:05:18;96625.00;;;9.10
35582;BMP180;21687;48.900;9.188;2024-02-23T13:08:05;96634.00;;;9.10
35582;BMP180;21687;48.900;9.188;2024-02-23T13:10:53;96629.00;;;9.20
35582;BMP180;21687;48.900;9.188;2024-02-23T13:13:39;96633.00;;;9.20
35582;BMP180;21687;48.900;9.188;2024-02-23T13:16:26;96639.00;;;9.10
35582;BMP180;21687;48.900;9.188;2024-02-23T13:19:12;96639.00;;;9.20
35582;BMP180;21687;48.900;9.188;2024-02-23T13:21:59;96627.00;;;9.20
35582;BMP180;21687;48.900;9.188;2024-02-23T13:24:47;96623.00;;;9.40
35582;BMP180;21687;48.900;9.188;2024-02-23T13:27:33;96624.00;;;9.60
35582;BMP180;21687;48.900;9.188;2024-02-23T13:30:20;96632.00;;;9.90
35582;BMP180;21687;48.900;9.188;2024-02-23T13:33:07;96632.00;;;10.10
35582;BMP180;21687;48.900;9.188;2024-02-23T13:35:54;96635.00;;;10.00
35582;BMP180;21687;48.900;9.188;2024-02-23T13:38:41;96632.00;;;9.90
35582;BMP180;21687;48.900;9.188;2024-02-23T13:41:28;96625.00;;;9.90
35582;BMP180;21687;48.900;9.188;2024-02-23T13:44:14;96617.00;;;10.00
35582;BMP180;21687;48.900;9.188;2024-02-23T13:47:01;96614.00;;;9.90
35582;BMP180;21687;48.900;9.188;2024-02-23T13:49:48;96610.00;;;9.70
35582;BMP180;21687;48.900;9.188;2024-02-23T13:52:34;96598.00;;;9.80
35582;BMP180;21687;48.900;9.188;2024-02-23T13:55:21;96601.00;;;9.80
35582;BMP180;21687;48.900;9.188;2024-02-23T13:58:07;96600.00;;;9.70
35582;BMP180;21687;48.900;9.188;2024-02-23T14:00:54;96600.00;;;9.70
35582;BMP180;21687;48.900;9.188;2024-02-23T14:03:40;96586.00;;;9.60
35582;BMP180;21687;48.900;9.188;2024-02-23T14:06:27;96584.00;;;9.40
35582;BMP180;21687;48.900;9.188;2024-02-23T14:09:14;96576.00;;;9.20
35582;BMP180;21687;48.900;9.188;2024-02-23T14:12:00;96573.00;;;9.20
35582;BMP180;21687;48.900;9.188;2024-02-23T14:14:47;96568.00;;;9.10
35582;BMP180;21687;48.900;9.188;2024-02-23T14:17:33;96576.00;;;9.10
35582;BMP180;21687;48.900;9.188;2024-02-23T14:20:20;96560.00;;;9.40
35582;BMP180;21687;48.900;9.188;2024-02-23T14:23:07;96570.00;;;9.50
35582;BMP180;21687;48.900;9.188;2024-02-23T14:25:53;96572.00;;;9.40
35582;BMP180;21687;48.900;9.188;2024-02-23T14:28:40;96567.00;;;9.20
35582;BMP180;21687;48.900;9.188;2024-02-23T14:31:27;96566.00;;;9.20
35582;BMP180;21687;48.900;9.188;2024-02-23T14:34:14;96568.00;;;9.30
35582;BMP180;21687;48.900;9.188;2024-02-23T14:37:00;96570.00;;;9.40
35582;BMP180;21687;48.900;9.188;2024-02-23T14:39:47;96567.00;;;9.30
35582;BMP180;21687;48.900;9.188;2024-02-23T14:42:33;96578.00;;;9.20
35582;BMP180;21687;48.900;9.188;2024-02-23T14:45:20;96578.00;;;9.30
35582;BMP180;21687;48.900;9.188;2024-02-23T14:48:09;96570.00;;;9.30
35582;BMP180;21687;48.900;9.188;2024-02-23T14:50:55;96573.00;;;9.40
35582;BMP180;21687;48.900;9.188;2024-02-23T14:53:44;96569.00;;;9.50
35582;BMP180;21687;48.900;9.188;2024-02-23T14:56:30;96563.00;;;9.50
35582;BMP180;21687;48.900;9.188;2024-02-23T14:59:17;96563.00;;;9.50